createdAt,value
2018-01-15T00:01:31.314Z,-1.50
2018-01-15T00:03:58.416Z,-1.60
2018-01-15T00:06:24.830Z,-1.60
2018-01-15T00:08:51.239Z,-1.80
2018-01-15T00:11:17.563Z,-1.80
2018-01-15T00:13:45.656Z,-1.70
2018-01-15T00:16:12.006Z,-1.70
2018-01-15T00:18:38.335Z,-1.60
2018-01-15T00:21:04.690Z,-1.60
2018-01-15T00:23:31.034Z,-1.50
2018-01-15T00:25:57.378Z,-1.50
2018-01-15T00:28:24.464Z,-1.70
2018-01-15T00:30:50.810Z,-1.70
2018-01-15T00:33:17.153Z,-1.70
2018-01-15T00:35:43.499Z,-1.80
2018-01-15T00:38:09.841Z,-2.00
2018-01-15T00:40:36.274Z,-1.90
2018-01-15T00:43:02.642Z,-1.90
2018-01-15T00:45:28.967Z,-1.80
2018-01-15T00:47:55.294Z,-1.70
2018-01-15T00:50:22.391Z,-1.80
2018-01-15T00:52:49.233Z,-1.90
2018-01-15T00:55:15.591Z,-1.80
2018-01-15T00:57:43.422Z,-1.90
2018-01-15T01:00:09.780Z,-1.90
2018-01-15T01:02:36.134Z,-1.80
2018-01-15T01:05:03.266Z,-1.70
2018-01-15T01:07:29.623Z,-1.80
2018-01-15T01:09:55.970Z,-1.90
2018-01-15T01:12:22.382Z,-2.00
2018-01-15T01:14:49.491Z,-2.00
2018-01-15T01:17:15.830Z,-2.00
2018-01-15T01:19:42.166Z,-2.00
2018-01-15T01:22:09.526Z,-1.90
2018-01-15T01:24:35.909Z,-1.90
2018-01-15T01:27:02.271Z,-1.90
2018-01-15T01:29:28.610Z,-1.90
2018-01-15T01:31:54.961Z,-1.90
2018-01-15T01:34:21.278Z,-1.90
2018-01-15T01:36:47.626Z,-1.90
2018-01-15T01:39:13.983Z,-2.00
2018-01-15T01:41:40.398Z,-2.00
2018-01-15T01:44:06.750Z,-2.00
2018-01-15T01:46:33.115Z,-1.90
2018-01-15T01:49:01.153Z,-2.10
2018-01-15T01:51:27.499Z,-2.00
2018-01-15T01:53:53.834Z,-2.10
2018-01-15T01:56:20.170Z,-2.10
2018-01-15T01:58:46.519Z,-2.20
2018-01-15T02:01:12.858Z,-2.10
2018-01-15T02:03:39.961Z,-2.00
2018-01-15T02:06:06.343Z,-2.00
2018-01-15T02:08:32.685Z,-2.00
2018-01-15T02:10:59.019Z,-2.00
2018-01-15T02:13:25.370Z,-1.90
2018-01-15T02:15:51.739Z,-1.80
2018-01-15T02:18:18.839Z,-1.70
2018-01-15T02:20:45.189Z,-1.70
2018-01-15T02:23:11.550Z,-1.70
2018-01-15T02:25:37.909Z,-1.60
2018-01-15T02:28:05.027Z,-1.50
2018-01-15T02:30:31.359Z,-1.50
2018-01-15T02:32:57.718Z,-1.50
2018-01-15T02:35:24.810Z,-1.50
2018-01-15T02:37:51.887Z,-1.60
2018-01-15T02:40:18.243Z,-1.70
2018-01-15T02:42:45.375Z,-1.70
2018-01-15T02:45:12.506Z,-1.60
2018-01-15T02:47:38.950Z,-1.60
2018-01-15T02:50:05.290Z,-1.50
2018-01-15T02:52:31.622Z,-1.40
2018-01-15T02:54:58.746Z,-1.50
2018-01-15T02:57:25.075Z,-1.50
2018-01-15T02:59:51.446Z,-1.40
2018-01-15T03:02:18.514Z,-1.40
2018-01-15T03:04:44.849Z,-1.40
2018-01-15T03:07:11.275Z,-1.30
2018-01-15T03:09:38.814Z,-1.20
2018-01-15T03:12:05.903Z,-1.10
2018-01-15T03:14:32.243Z,-1.10
2018-01-15T03:16:58.591Z,-0.90
2018-01-15T03:19:25.516Z,-0.90
2018-01-15T03:21:51.894Z,-0.90
2018-01-15T03:24:18.983Z,-0.80
2018-01-15T03:26:45.318Z,-0.80
2018-01-15T03:29:11.654Z,-0.70
2018-01-15T03:31:37.987Z,-0.60
2018-01-15T03:34:04.315Z,-0.60
2018-01-15T03:36:30.651Z,-0.70
2018-01-15T03:38:56.971Z,-0.70
2018-01-15T03:41:23.298Z,-0.90
2018-01-15T03:43:49.623Z,-0.90
2018-01-15T03:46:15.942Z,-0.90
2018-01-15T03:48:42.326Z,-1.00
2018-01-15T03:51:08.659Z,-1.10
2018-01-15T03:53:34.979Z,-1.10
2018-01-15T03:56:01.325Z,-1.10
2018-01-15T03:58:27.670Z,-1.10
2018-01-15T04:00:54.026Z,-1.00
2018-01-15T04:03:20.353Z,-1.20
2018-01-15T04:05:46.707Z,-1.20
2018-01-15T04:08:13.050Z,-1.30
2018-01-15T04:10:39.403Z,-1.30
2018-01-15T04:13:05.789Z,-1.40
2018-01-15T04:15:32.125Z,-1.40
2018-01-15T04:17:58.498Z,-1.40
2018-01-15T04:20:24.876Z,-1.40
2018-01-15T04:22:51.959Z,-1.40
2018-01-15T04:25:18.306Z,-1.40
2018-01-15T04:27:44.637Z,-1.40
2018-01-15T04:30:10.982Z,-1.50
2018-01-15T04:32:37.654Z,-1.60
2018-01-15T04:35:04.759Z,-1.50
2018-01-15T04:37:31.131Z,-1.60
2018-01-15T04:39:58.294Z,-1.50
2018-01-15T04:42:25.389Z,-1.60
2018-01-15T04:44:51.726Z,-1.60
2018-01-15T04:47:19.077Z,-1.60
2018-01-15T04:49:45.411Z,-1.70
2018-01-15T04:52:11.742Z,-1.70
2018-01-15T04:54:38.123Z,-1.80
2018-01-15T04:57:04.490Z,-1.80
2018-01-15T04:59:30.811Z,-1.80
2018-01-15T05:01:57.151Z,-1.80
2018-01-15T05:04:23.483Z,-1.80
2018-01-15T05:06:49.855Z,-1.80
2018-01-15T05:09:16.958Z,-1.80
2018-01-15T05:11:43.331Z,-1.80
2018-01-15T05:14:09.958Z,-1.80
2018-01-15T05:16:36.346Z,-1.80
2018-01-15T05:19:02.740Z,-1.80
2018-01-15T05:21:29.846Z,-1.70
2018-01-15T05:23:56.202Z,-1.80
2018-01-15T05:26:22.604Z,-1.70
2018-01-15T05:28:49.724Z,-1.70
2018-01-15T05:31:16.806Z,-1.60
2018-01-15T05:33:43.142Z,-1.70
2018-01-15T05:36:09.492Z,-1.50
2018-01-15T05:38:35.832Z,-1.50
2018-01-15T05:41:02.770Z,-1.40
2018-01-15T05:43:29.138Z,-1.40
2018-01-15T05:45:56.242Z,-1.30
2018-01-15T05:48:22.568Z,-1.30
2018-01-15T05:50:48.918Z,-1.30
2018-01-15T05:53:15.258Z,-1.20
2018-01-15T05:55:41.601Z,-1.20
2018-01-15T05:58:08.688Z,-1.20
2018-01-15T06:00:35.053Z,-1.20
2018-01-15T06:03:01.452Z,-1.20
2018-01-15T06:05:27.788Z,-1.20
2018-01-15T06:07:54.130Z,-1.20
2018-01-15T06:10:20.460Z,-1.20
2018-01-15T06:12:46.789Z,-1.20
2018-01-15T06:15:13.114Z,-1.20
2018-01-15T06:17:39.458Z,-1.20
2018-01-15T06:20:05.790Z,-1.20
2018-01-15T06:22:32.150Z,-1.20
2018-01-15T06:24:58.486Z,-1.20
2018-01-15T06:27:24.886Z,-1.10
2018-01-15T06:29:51.222Z,-1.20
2018-01-15T06:32:17.586Z,-1.20
2018-01-15T06:34:44.791Z,-1.20
2018-01-15T06:37:11.146Z,-1.30
2018-01-15T06:39:37.474Z,-1.30
2018-01-15T06:42:03.840Z,-1.30
2018-01-15T06:44:30.913Z,-1.40
2018-01-15T06:46:57.274Z,-1.50
2018-01-15T06:49:23.598Z,-1.40
2018-01-15T06:51:49.950Z,-1.40
2018-01-15T06:54:16.279Z,-1.40
2018-01-15T06:56:42.625Z,-1.40
2018-01-15T06:59:09.726Z,-1.30
2018-01-15T07:01:36.071Z,-1.30
2018-01-15T07:04:02.411Z,-1.40
2018-01-15T07:06:28.786Z,-1.40
2018-01-15T07:08:55.891Z,-1.50
2018-01-15T07:11:22.223Z,-1.50
2018-01-15T07:13:48.551Z,-1.40
2018-01-15T07:16:14.899Z,-1.20
2018-01-15T07:18:41.231Z,-1.10
2018-01-15T07:21:07.595Z,-1.00
2018-01-15T07:23:33.926Z,-0.90
2018-01-15T07:26:00.291Z,-0.80
2018-01-15T07:28:26.687Z,-0.60
2018-01-15T07:30:54.290Z,-0.50
2018-01-15T07:33:20.635Z,-0.60
2018-01-15T07:35:46.967Z,-0.50
2018-01-15T07:38:13.314Z,-0.50
2018-01-15T07:40:39.652Z,-0.40
2018-01-15T07:43:06.001Z,-0.30
2018-01-15T07:45:33.082Z,-0.10
2018-01-15T07:47:59.438Z,-0.10
2018-01-15T07:50:25.782Z,0.00
2018-01-15T07:52:52.118Z,0.00
2018-01-15T07:55:18.471Z,0.10
2018-01-15T07:57:45.556Z,0.30
2018-01-15T08:00:11.886Z,0.20
2018-01-15T08:02:38.227Z,0.30
2018-01-15T08:05:04.562Z,0.40
2018-01-15T08:07:30.990Z,0.50
2018-01-15T08:09:57.326Z,0.60
2018-01-15T08:12:23.710Z,0.70
2018-01-15T08:14:50.777Z,0.70
2018-01-15T08:17:17.115Z,0.70
2018-01-15T08:19:43.474Z,0.70
2018-01-15T08:22:09.812Z,0.70
2018-01-15T08:24:36.143Z,0.80
2018-01-15T08:27:02.519Z,0.70
2018-01-15T08:29:29.586Z,0.70
2018-01-15T08:31:55.971Z,0.60
2018-01-15T08:34:22.306Z,0.50
2018-01-15T08:36:48.679Z,0.60
2018-01-15T08:39:15.015Z,0.80
2018-01-15T08:41:41.350Z,1.00
2018-01-15T08:44:07.727Z,1.20
2018-01-15T08:46:34.837Z,1.50
2018-01-15T08:49:01.182Z,1.50
2018-01-15T08:51:27.592Z,1.60
2018-01-15T08:53:53.942Z,1.60
2018-01-15T08:56:20.274Z,1.60
2018-01-15T08:58:46.611Z,1.60
2018-01-15T09:01:12.946Z,1.50
2018-01-15T09:03:39.280Z,1.60
2018-01-15T09:06:05.643Z,1.60
2018-01-15T09:08:31.975Z,1.80
2018-01-15T09:10:59.080Z,1.90
2018-01-15T09:13:25.410Z,1.80
2018-01-15T09:15:51.762Z,1.90
2018-01-15T09:18:18.091Z,1.90
2018-01-15T09:20:44.431Z,1.90
2018-01-15T09:23:10.782Z,1.90
2018-01-15T09:25:37.858Z,2.00
2018-01-15T09:28:04.218Z,2.00
2018-01-15T09:30:30.552Z,2.20
2018-01-15T09:32:56.911Z,2.30
2018-01-15T09:35:23.243Z,2.20
2018-01-15T09:37:49.602Z,2.30
2018-01-15T09:40:15.931Z,2.40
2018-01-15T09:42:42.989Z,2.80
2018-01-15T09:45:09.302Z,2.70
2018-01-15T09:47:36.377Z,2.80
2018-01-15T09:50:02.735Z,2.70
2018-01-15T09:52:29.058Z,2.80
2018-01-15T09:54:55.386Z,3.00
2018-01-15T09:57:21.717Z,3.20
2018-01-15T09:59:48.077Z,3.20
2018-01-15T10:02:14.449Z,3.30
2018-01-15T10:04:40.826Z,3.30
2018-01-15T10:07:07.171Z,3.40
2018-01-15T10:09:33.554Z,3.30
2018-01-15T10:11:59.886Z,3.40
2018-01-15T10:14:26.231Z,3.60
2018-01-15T10:16:52.567Z,3.60
2018-01-15T10:19:18.962Z,3.70
2018-01-15T10:21:46.035Z,4.20
2018-01-15T10:24:12.382Z,4.10
2018-01-15T10:26:38.718Z,4.40
2018-01-15T10:29:05.106Z,4.70
2018-01-15T10:31:32.177Z,5.20
2018-01-15T10:33:58.534Z,5.10
2018-01-15T10:36:24.874Z,5.30
2018-01-15T10:38:52.279Z,5.50
2018-01-15T10:41:18.629Z,5.60
2018-01-15T10:43:44.986Z,5.70
2018-01-15T10:46:11.331Z,5.60
2018-01-15T10:48:37.667Z,5.40
2018-01-15T10:51:04.043Z,5.20
2018-01-15T10:53:30.417Z,5.00
2018-01-15T10:55:56.734Z,4.90
2018-01-15T10:58:23.135Z,4.90
2018-01-15T11:00:50.335Z,4.80
2018-01-15T11:03:16.796Z,4.90
2018-01-15T11:05:43.890Z,5.20
2018-01-15T11:08:10.230Z,5.20
2018-01-15T11:10:36.605Z,5.30
2018-01-15T11:13:03.739Z,5.50
2018-01-15T11:15:30.055Z,5.40
2018-01-15T11:17:56.407Z,5.50
2018-01-15T11:20:22.758Z,5.50
2018-01-15T11:22:50.843Z,5.60
2018-01-15T11:25:17.206Z,5.60
2018-01-15T11:27:43.547Z,5.60
2018-01-15T11:30:09.886Z,5.60
2018-01-15T11:32:36.253Z,5.70
2018-01-15T11:35:03.334Z,6.00
2018-01-15T11:37:29.674Z,6.00
2018-01-15T11:39:55.990Z,6.00
2018-01-15T11:42:22.338Z,6.10
2018-01-15T11:44:49.401Z,6.30
2018-01-15T11:47:15.722Z,6.30
2018-01-15T11:49:42.068Z,6.50
2018-01-15T11:52:08.471Z,6.40
2018-01-15T11:54:34.830Z,6.40
2018-01-15T11:57:01.166Z,6.60
2018-01-15T11:59:27.494Z,6.70
2018-01-15T12:01:53.852Z,6.80
2018-01-15T12:04:20.954Z,6.90
2018-01-15T12:06:47.312Z,6.90
2018-01-15T12:09:13.689Z,7.00
2018-01-15T12:11:40.040Z,7.10
2018-01-15T12:14:06.387Z,7.20
2018-01-15T12:16:32.738Z,7.30
2018-01-15T12:18:59.101Z,7.40
2018-01-15T12:21:25.430Z,7.50
2018-01-15T12:23:52.522Z,7.60
2018-01-15T12:26:18.850Z,7.70
2018-01-15T12:28:45.190Z,7.80
2018-01-15T12:31:11.543Z,7.90
2018-01-15T12:33:37.900Z,7.90
2018-01-15T12:36:04.970Z,8.10
2018-01-15T12:38:32.195Z,8.10
2018-01-15T12:40:59.267Z,8.30
2018-01-15T12:43:25.606Z,8.30
2018-01-15T12:45:51.974Z,8.40
2018-01-15T12:48:18.314Z,8.60
2018-01-15T12:50:44.708Z,8.90
2018-01-15T12:53:11.054Z,9.50
2018-01-15T12:55:38.458Z,10.10
2018-01-15T12:58:06.531Z,11.10
2018-01-15T13:00:32.878Z,11.10
2018-01-15T13:02:59.256Z,11.80
2018-01-15T13:05:37.758Z,12.50
2018-01-15T13:08:11.151Z,13.00
2018-01-15T13:10:37.523Z,13.40
2018-01-15T13:13:04.675Z,14.00
2018-01-15T13:15:31.754Z,14.00
2018-01-15T13:17:59.134Z,14.00
2018-01-15T13:20:25.467Z,14.30
2018-01-15T13:22:51.844Z,14.50
2018-01-15T13:25:18.906Z,15.30
2018-01-15T13:27:45.995Z,15.10
2018-01-15T13:30:12.359Z,15.00
2018-01-15T13:32:38.715Z,14.80
2018-01-15T13:35:05.802Z,14.50
2018-01-15T13:37:32.167Z,14.50
2018-01-15T13:39:58.515Z,14.60
2018-01-15T13:42:26.629Z,15.60
2018-01-15T13:44:52.971Z,15.60
2018-01-15T13:47:19.338Z,15.20
2018-01-15T13:49:46.353Z,14.50
2018-01-15T13:52:12.700Z,14.10
2018-01-15T13:54:41.294Z,13.80
2018-01-15T13:57:07.666Z,13.20
2018-01-15T13:59:34.011Z,12.40
2018-01-15T14:02:01.342Z,11.40
2018-01-15T14:04:27.674Z,10.60
2018-01-15T14:06:54.034Z,10.10
2018-01-15T14:09:20.391Z,9.60
2018-01-15T14:11:46.746Z,9.40
2018-01-15T14:14:13.094Z,9.40
2018-01-15T14:16:39.431Z,9.30
2018-01-15T14:19:05.786Z,9.10
2018-01-15T14:21:32.155Z,8.80
2018-01-15T14:23:58.520Z,8.70
2018-01-15T14:26:25.890Z,8.70
2018-01-15T14:28:52.615Z,8.50
2018-01-15T14:31:18.977Z,8.50
2018-01-15T14:33:45.323Z,8.50
2018-01-15T14:36:11.675Z,8.40
2018-01-15T14:38:38.035Z,8.20
2018-01-15T14:41:05.136Z,8.00
2018-01-15T14:43:31.469Z,8.00
2018-01-15T14:45:57.820Z,8.10
2018-01-15T14:48:24.158Z,8.00
2018-01-15T14:50:50.502Z,8.10
2018-01-15T14:53:17.610Z,8.00
2018-01-15T14:55:43.946Z,8.00
2018-01-15T14:58:10.307Z,7.90
2018-01-15T15:00:37.446Z,7.70
2018-01-15T15:03:05.564Z,7.60
2018-01-15T15:05:31.926Z,7.60
2018-01-15T15:07:58.261Z,7.50
2018-01-15T15:10:24.618Z,7.60
2018-01-15T15:12:50.946Z,7.50
2018-01-15T15:15:17.284Z,7.40
2018-01-15T15:17:44.482Z,7.40
2018-01-15T15:20:10.818Z,7.40
2018-01-15T15:22:37.209Z,7.50
2018-01-15T15:25:04.289Z,7.80
2018-01-15T15:27:30.631Z,7.80
2018-01-15T15:29:56.989Z,7.50
2018-01-15T15:32:23.318Z,7.20
2018-01-15T15:34:49.715Z,7.10
2018-01-15T15:37:16.047Z,6.90
2018-01-15T15:39:42.422Z,6.70
2018-01-15T15:42:08.769Z,6.70
2018-01-15T15:44:35.984Z,6.60
2018-01-15T15:47:03.166Z,6.60
2018-01-15T15:49:29.514Z,6.60
2018-01-15T15:51:56.599Z,6.30
2018-01-15T15:54:22.974Z,6.30
2018-01-15T15:56:50.090Z,6.20
2018-01-15T15:59:16.430Z,6.20
2018-01-15T16:01:42.762Z,6.10
2018-01-15T16:04:09.106Z,5.90
2018-01-15T16:06:35.458Z,5.90
2018-01-15T16:09:02.578Z,5.70
2018-01-15T16:11:28.943Z,5.70
2018-01-15T16:13:56.038Z,5.60
2018-01-15T16:16:22.411Z,5.50
2018-01-15T16:18:49.786Z,5.30
2018-01-15T16:21:21.087Z,5.50
2018-01-15T16:23:47.899Z,5.20
2018-01-15T16:26:14.238Z,5.00
2018-01-15T16:28:41.315Z,4.60
2018-01-15T16:31:07.732Z,4.50
2018-01-15T16:33:34.071Z,4.50
2018-01-15T16:36:00.423Z,4.50
2018-01-15T16:38:26.791Z,4.50
2018-01-15T16:40:53.119Z,4.30
2018-01-15T16:43:20.203Z,4.10
2018-01-15T16:45:46.586Z,4.10
2018-01-15T16:48:13.694Z,4.00
2018-01-15T16:50:40.099Z,4.00
2018-01-15T16:53:06.450Z,3.80
2018-01-15T16:55:32.774Z,3.90
2018-01-15T16:58:00.024Z,3.80
2018-01-15T17:00:26.409Z,3.70
2018-01-15T17:02:52.782Z,3.60
2018-01-15T17:05:19.182Z,3.40
2018-01-15T17:07:46.279Z,3.30
2018-01-15T17:10:12.804Z,3.30
2018-01-15T17:12:39.143Z,3.30
2018-01-15T17:15:05.490Z,3.40
2018-01-15T17:17:32.631Z,3.50
2018-01-15T17:19:59.011Z,3.40
2018-01-15T17:22:26.103Z,3.50
2018-01-15T17:24:52.425Z,3.50
2018-01-15T17:27:18.756Z,3.50
2018-01-15T17:29:46.090Z,3.60
2018-01-15T17:32:12.427Z,3.60
2018-01-15T17:34:38.758Z,3.50
2018-01-15T17:37:05.122Z,3.50
2018-01-15T17:39:31.467Z,3.50
2018-01-15T17:41:57.862Z,3.50
2018-01-15T17:44:24.215Z,3.60
2018-01-15T17:46:50.584Z,3.60
2018-01-15T17:49:17.661Z,3.60
2018-01-15T17:51:44.072Z,3.60
2018-01-15T17:54:11.142Z,3.40
2018-01-15T17:56:37.530Z,3.40
2018-01-15T17:59:03.879Z,3.40
2018-01-15T18:01:30.995Z,3.50
2018-01-15T18:03:57.338Z,3.40
2018-01-15T18:06:23.744Z,3.40
2018-01-15T18:08:50.857Z,3.40
2018-01-15T18:11:17.970Z,3.50
2018-01-15T18:13:45.308Z,3.50
2018-01-15T18:16:11.686Z,3.70
2018-01-15T18:18:38.776Z,3.70
2018-01-15T18:21:05.118Z,3.70
2018-01-15T18:23:31.454Z,3.80
2018-01-15T18:25:57.810Z,3.80
2018-01-15T18:28:24.172Z,3.80
2018-01-15T18:30:50.527Z,3.80
2018-01-15T18:33:16.847Z,3.80
2018-01-15T18:35:43.186Z,3.90
2018-01-15T18:38:09.530Z,3.80
2018-01-15T18:40:36.890Z,3.90
2018-01-15T18:43:03.239Z,3.80
2018-01-15T18:45:30.319Z,3.90
2018-01-15T18:47:56.678Z,3.80
2018-01-15T18:50:23.015Z,3.80
2018-01-15T18:52:49.349Z,3.80
2018-01-15T18:55:15.808Z,3.60
2018-01-15T18:57:42.138Z,3.60
2018-01-15T19:00:09.239Z,3.50
2018-01-15T19:02:35.598Z,3.50
2018-01-15T19:05:02.013Z,3.40
2018-01-15T19:07:28.360Z,3.30
2018-01-15T19:09:54.702Z,3.10
2018-01-15T19:12:21.034Z,3.20
2018-01-15T19:14:47.391Z,3.20
2018-01-15T19:17:13.803Z,3.30
2018-01-15T19:19:41.158Z,3.40
2018-01-15T19:22:07.572Z,3.50
2018-01-15T19:24:33.898Z,3.40
2018-01-15T19:27:00.316Z,3.40
2018-01-15T19:29:26.679Z,3.40
2018-01-15T19:31:53.034Z,3.10
2018-01-15T19:34:19.391Z,2.80
2018-01-15T19:36:46.721Z,2.80
2018-01-15T19:39:14.103Z,2.70
2018-01-15T19:41:40.478Z,2.70
2018-01-15T19:44:13.034Z,2.70
2018-01-15T19:46:45.442Z,2.60
2018-01-15T19:49:17.882Z,2.50
2018-01-15T19:51:50.347Z,2.50
2018-01-15T19:54:22.839Z,2.50
2018-01-15T19:56:55.438Z,2.70
2018-01-15T19:59:28.062Z,2.70
2018-01-15T20:02:01.163Z,2.60
2018-01-15T20:04:33.521Z,2.60
2018-01-15T20:07:06.614Z,2.60
2018-01-15T20:09:39.759Z,2.70
2018-01-15T20:12:06.324Z,2.70
2018-01-15T20:14:33.487Z,2.80
2018-01-15T20:17:00.579Z,3.00
2018-01-15T20:19:27.658Z,2.90
2018-01-15T20:21:53.990Z,2.80
2018-01-15T20:24:21.367Z,2.80
2018-01-15T20:26:48.455Z,2.80
2018-01-15T20:29:14.798Z,2.70
2018-01-15T20:31:41.133Z,2.80
2018-01-15T20:34:07.538Z,2.80
2018-01-15T20:36:33.872Z,3.00
2018-01-15T20:39:00.215Z,3.10
2018-01-15T20:41:26.543Z,3.20
2018-01-15T20:43:52.862Z,3.30
2018-01-15T20:46:19.202Z,3.40
2018-01-15T20:48:45.530Z,3.50
2018-01-15T20:51:11.866Z,3.50
2018-01-15T20:53:38.194Z,3.60
2018-01-15T20:56:04.527Z,3.60
2018-01-15T20:58:30.854Z,3.60
2018-01-15T21:00:57.222Z,3.40
2018-01-15T21:03:23.676Z,3.30
2018-01-15T21:05:50.781Z,3.30
2018-01-15T21:08:18.510Z,3.30
2018-01-15T21:10:44.842Z,3.50
2018-01-15T21:13:11.175Z,3.60
2018-01-15T21:15:37.506Z,3.60
2018-01-15T21:18:03.861Z,3.50
2018-01-15T21:20:30.203Z,3.40
2018-01-15T21:22:56.547Z,3.50
2018-01-15T21:25:22.882Z,3.60
2018-01-15T21:27:49.231Z,3.60
2018-01-15T21:30:16.319Z,3.60
2018-01-15T21:32:43.038Z,3.60
2018-01-15T21:35:09.378Z,3.60
2018-01-15T21:37:36.741Z,3.50
2018-01-15T21:40:03.105Z,3.30
2018-01-15T21:42:29.442Z,3.20
2018-01-15T21:44:55.791Z,3.30
2018-01-15T21:47:22.869Z,3.20
2018-01-15T21:49:49.198Z,3.20
2018-01-15T21:52:15.526Z,3.20
2018-01-15T21:54:41.916Z,3.30
2018-01-15T21:57:08.319Z,3.30
2018-01-15T21:59:34.643Z,3.40
2018-01-15T22:02:00.983Z,3.40
2018-01-15T22:04:27.322Z,3.30
2018-01-15T22:06:53.659Z,3.40
2018-01-15T22:09:19.998Z,3.40
2018-01-15T22:11:46.377Z,3.30
2018-01-15T22:14:13.473Z,3.20
2018-01-15T22:16:39.866Z,3.20
2018-01-15T22:19:07.857Z,3.30
2018-01-15T22:21:34.218Z,3.40
2018-01-15T22:24:00.562Z,3.50
2018-01-15T22:26:26.926Z,3.50
2018-01-15T22:28:54.056Z,3.50
2018-01-15T22:31:20.639Z,3.40
2018-01-15T22:33:48.050Z,3.40
2018-01-15T22:36:15.175Z,3.40
2018-01-15T22:38:41.564Z,3.40
2018-01-15T22:41:08.003Z,3.50
2018-01-15T22:43:34.334Z,3.40
2018-01-15T22:46:00.695Z,3.40
2018-01-15T22:48:27.095Z,3.30
2018-01-15T22:50:53.773Z,3.10
2018-01-15T22:53:20.191Z,3.30
2018-01-15T22:55:46.649Z,3.50
2018-01-15T22:58:13.046Z,3.60
2018-01-15T23:00:39.384Z,3.80
2018-01-15T23:03:05.745Z,3.90
2018-01-15T23:05:32.158Z,3.70
2018-01-15T23:07:58.534Z,3.60
2018-01-15T23:10:24.884Z,3.60
2018-01-15T23:12:51.230Z,3.70
2018-01-15T23:15:18.640Z,3.90
2018-01-15T23:17:45.012Z,4.00
2018-01-15T23:20:11.374Z,4.00
2018-01-15T23:22:37.735Z,4.10
2018-01-15T23:25:04.090Z,4.00
2018-01-15T23:27:30.467Z,4.00
2018-01-15T23:29:57.871Z,4.30
2018-01-15T23:32:25.231Z,4.30
2018-01-15T23:34:52.306Z,4.50
2018-01-15T23:37:18.715Z,4.50
2018-01-15T23:39:45.040Z,4.40
2018-01-15T23:42:12.150Z,4.40
2018-01-15T23:44:38.491Z,4.30
2018-01-15T23:47:04.863Z,4.30
2018-01-15T23:49:31.194Z,4.30
2018-01-15T23:51:57.527Z,4.30
2018-01-15T23:54:32.114Z,4.20
2018-01-15T23:56:58.484Z,4.30
2018-01-15T23:59:24.835Z,4.30
